createdAt,value
2023-03-05T00:02:09.076Z,58.85
2023-03-05T00:04:37.444Z,59.18
2023-03-05T00:07:08.981Z,59.04
2023-03-05T00:09:36.566Z,58.91
2023-03-05T00:12:04.510Z,59.01
2023-03-05T00:14:32.127Z,59.06
2023-03-05T00:16:59.726Z,59.00
2023-03-05T00:19:27.347Z,59.04
2023-03-05T00:21:54.959Z,59.22
2023-03-05T00:24:23.940Z,59.14
2023-03-05T00:26:51.500Z,59.09
2023-03-05T00:29:21.777Z,58.82
2023-03-05T00:31:49.504Z,59.08
2023-03-05T00:34:19.379Z,58.96
2023-03-05T00:36:48.537Z,58.96
2023-03-05T00:39:17.419Z,58.88
2023-03-05T00:41:46.590Z,59.18
2023-03-05T00:44:14.430Z,58.99
2023-03-05T00:46:42.109Z,59.02
2023-03-05T00:49:09.765Z,59.10
2023-03-05T00:51:37.390Z,58.92
2023-03-05T00:54:05.486Z,58.85
2023-03-05T00:56:33.406Z,58.83
2023-03-05T00:59:02.448Z,58.69
2023-03-05T01:01:30.156Z,59.04
2023-03-05T01:03:59.497Z,58.95
2023-03-05T01:06:27.193Z,58.94
2023-03-05T01:08:54.763Z,58.48
2023-03-05T01:11:22.417Z,58.77
2023-03-05T01:13:50.030Z,58.75
2023-03-05T01:16:19.127Z,58.74
2023-03-05T01:18:46.810Z,58.74
2023-03-05T01:21:14.401Z,58.77
2023-03-05T01:23:42.020Z,58.99
2023-03-05T01:26:09.657Z,59.10
2023-03-05T01:28:38.143Z,58.88
2023-03-05T01:31:09.043Z,58.86
2023-03-05T01:33:38.783Z,58.75
2023-03-05T01:36:12.459Z,58.55
2023-03-05T01:38:40.273Z,58.56
2023-03-05T01:41:08.299Z,58.94
2023-03-05T01:43:35.983Z,58.86
2023-03-05T01:46:31.490Z,58.97
2023-03-05T01:49:12.508Z,59.02
2023-03-05T01:51:46.056Z,59.17
2023-03-05T01:54:16.618Z,58.85
2023-03-05T01:56:46.954Z,58.80
2023-03-05T01:59:15.338Z,58.85
2023-03-05T02:01:47.135Z,58.91
2023-03-05T02:04:18.897Z,59.01
2023-03-05T02:06:47.608Z,59.00
2023-03-05T02:09:15.252Z,58.87
2023-03-05T02:11:44.053Z,58.99
2023-03-05T02:14:11.869Z,58.98
2023-03-05T02:16:40.271Z,59.01
2023-03-05T02:19:10.947Z,58.98
2023-03-05T02:21:41.717Z,58.99
2023-03-05T02:24:13.703Z,58.80
2023-03-05T02:26:43.147Z,58.77
2023-03-05T02:29:13.389Z,58.90
2023-03-05T02:31:41.128Z,58.72
2023-03-05T02:34:08.702Z,58.83
2023-03-05T02:36:36.321Z,59.00
2023-03-05T02:39:05.379Z,58.52
2023-03-05T02:41:32.968Z,58.66
2023-03-05T02:44:00.570Z,58.89
2023-03-05T02:46:28.196Z,58.64
2023-03-05T02:48:55.816Z,58.73
2023-03-05T02:51:23.482Z,58.85
2023-03-05T02:53:51.538Z,58.83
2023-03-05T02:56:20.479Z,58.92
2023-03-05T02:58:48.130Z,58.98
2023-03-05T03:01:15.859Z,58.88
2023-03-05T03:03:43.533Z,58.86
2023-03-05T03:06:11.218Z,58.80
2023-03-05T03:08:38.975Z,58.88
2023-03-05T03:11:08.770Z,58.55
2023-03-05T03:13:37.726Z,58.70
2023-03-05T03:16:06.968Z,58.70
2023-03-05T03:18:34.812Z,58.66
2023-03-05T03:21:03.003Z,59.09
2023-03-05T03:23:30.647Z,58.73
2023-03-05T03:25:58.807Z,58.88
2023-03-05T03:28:27.175Z,58.76
2023-03-05T03:30:56.234Z,58.64
2023-03-05T03:33:23.932Z,58.99
2023-03-05T03:35:51.564Z,59.00
2023-03-05T03:38:19.454Z,58.79
2023-03-05T03:40:47.061Z,58.91
2023-03-05T03:43:14.703Z,58.53
2023-03-05T03:45:43.095Z,59.05
2023-03-05T03:48:12.360Z,58.83
2023-03-05T03:50:40.882Z,58.78
2023-03-05T03:53:09.258Z,58.72
2023-03-05T03:55:36.852Z,58.86
2023-03-05T03:58:04.434Z,58.84
2023-03-05T04:00:32.050Z,58.83
2023-03-05T04:02:59.710Z,58.74
2023-03-05T04:05:28.719Z,58.99
2023-03-05T04:07:58.318Z,58.84
2023-03-05T04:10:25.976Z,58.84
2023-03-05T04:12:53.600Z,58.66
2023-03-05T04:15:21.269Z,58.83
2023-03-05T04:17:48.876Z,58.85
2023-03-05T04:20:16.512Z,58.43
2023-03-05T04:22:45.514Z,58.73
2023-03-05T04:25:13.134Z,58.77
2023-03-05T04:27:41.182Z,58.77
2023-03-05T04:30:10.461Z,58.58
2023-03-05T04:32:38.230Z,58.89
2023-03-05T04:35:06.280Z,58.85
2023-03-05T04:37:34.108Z,58.83
2023-03-05T04:40:04.366Z,58.94
2023-03-05T04:42:31.976Z,58.86
2023-03-05T04:44:59.616Z,59.07
2023-03-05T04:47:27.317Z,58.81
2023-03-05T04:49:54.967Z,58.98
2023-03-05T04:52:22.765Z,58.71
2023-03-05T04:54:50.362Z,58.78
2023-03-05T04:57:19.465Z,58.62
2023-03-05T04:59:47.129Z,58.77
2023-03-05T05:02:14.754Z,58.71
2023-03-05T05:04:45.025Z,58.60
2023-03-05T05:07:13.771Z,58.83
2023-03-05T05:09:41.739Z,58.79
2023-03-05T05:12:10.518Z,58.66
2023-03-05T05:14:39.769Z,58.76
2023-03-05T05:17:07.442Z,58.94
2023-03-05T05:19:36.129Z,58.81
2023-03-05T05:22:03.742Z,58.83
2023-03-05T05:24:31.307Z,58.70
2023-03-05T05:26:58.965Z,58.63
2023-03-05T05:29:26.624Z,58.89
2023-03-05T05:31:56.353Z,58.83
2023-03-05T05:34:25.114Z,58.86
2023-03-05T05:36:52.845Z,58.84
2023-03-05T05:39:20.618Z,58.93
2023-03-05T05:41:51.901Z,58.82
2023-03-05T05:44:19.524Z,58.67
2023-03-05T05:46:47.231Z,58.77
2023-03-05T05:49:16.242Z,58.62
2023-03-05T05:51:43.821Z,58.70
2023-03-05T05:54:13.916Z,58.69
2023-03-05T05:56:41.790Z,58.75
2023-03-05T05:59:11.286Z,58.63
2023-03-05T06:01:39.323Z,58.78
2023-03-05T06:04:06.951Z,58.71
2023-03-05T06:06:36.043Z,58.73
2023-03-05T06:09:04.694Z,58.70
2023-03-05T06:11:32.359Z,58.63
2023-03-05T06:13:59.934Z,58.85
2023-03-05T06:16:28.181Z,58.74
2023-03-05T06:18:55.783Z,58.84
2023-03-05T06:21:24.337Z,58.75
2023-03-05T06:23:53.408Z,58.78
2023-03-05T06:26:23.015Z,58.59
2023-03-05T06:28:50.792Z,58.69
2023-03-05T06:31:21.790Z,58.63
2023-03-05T06:33:50.411Z,58.51
2023-03-05T06:36:20.101Z,58.90
2023-03-05T06:38:49.028Z,58.78
2023-03-05T06:41:21.110Z,58.71
2023-03-05T06:43:49.754Z,58.76
2023-03-05T06:46:19.649Z,58.86
2023-03-05T06:48:48.159Z,58.74
2023-03-05T06:51:17.859Z,58.81
2023-03-05T06:53:48.305Z,58.73
2023-03-05T06:56:19.130Z,58.74
2023-03-05T06:58:48.549Z,59.00
2023-03-05T07:01:16.530Z,58.76
2023-03-05T07:03:44.344Z,58.82
2023-03-05T07:06:16.448Z,58.74
2023-03-05T07:08:45.661Z,58.94
2023-03-05T07:11:14.500Z,58.87
2023-03-05T07:13:44.448Z,58.73
2023-03-05T07:16:16.554Z,58.61
2023-03-05T07:18:44.836Z,58.61
2023-03-05T07:21:17.789Z,58.52
2023-03-05T07:23:45.413Z,58.79
2023-03-05T07:26:13.604Z,58.93
2023-03-05T07:28:43.336Z,58.50
2023-03-05T07:31:15.095Z,58.78
2023-03-05T07:33:42.872Z,58.62
2023-03-05T07:36:11.577Z,58.67
2023-03-05T07:38:39.535Z,58.54
2023-03-05T07:41:08.913Z,58.81
2023-03-05T07:43:36.641Z,58.43
2023-03-05T07:46:07.270Z,58.46
2023-03-05T07:48:35.076Z,58.75
2023-03-05T07:51:03.644Z,58.73
2023-03-05T07:53:31.267Z,58.88
2023-03-05T07:55:58.936Z,58.61
2023-03-05T07:58:27.530Z,58.90
2023-03-05T08:00:55.258Z,58.95
2023-03-05T08:03:24.196Z,58.86
2023-03-05T08:05:51.849Z,58.74
2023-03-05T08:08:19.559Z,58.88
2023-03-05T08:10:47.385Z,58.76
2023-03-05T08:13:15.056Z,58.72
2023-03-05T08:15:42.687Z,58.94
2023-03-05T08:18:10.260Z,58.90
2023-03-05T08:20:39.623Z,58.98
2023-03-05T08:23:07.236Z,58.88
2023-03-05T08:25:34.895Z,58.70
2023-03-05T08:28:02.665Z,58.86
2023-03-05T08:30:30.469Z,58.74
2023-03-05T08:32:58.090Z,58.96
2023-03-05T08:35:25.832Z,58.75
2023-03-05T08:37:54.777Z,58.89
2023-03-05T08:40:22.362Z,58.96
2023-03-05T08:42:51.940Z,58.70
2023-03-05T08:45:19.655Z,58.89
2023-03-05T08:47:47.355Z,59.00
2023-03-05T08:50:14.994Z,59.12
2023-03-05T08:52:42.619Z,58.96
2023-03-05T08:55:12.692Z,58.83
2023-03-05T08:57:40.414Z,59.03
2023-03-05T09:00:10.226Z,59.04
2023-03-05T09:02:38.066Z,59.03
2023-03-05T09:05:06.243Z,59.09
2023-03-05T09:07:33.882Z,58.86
2023-03-05T09:10:01.601Z,59.06
2023-03-05T09:12:30.585Z,58.86
2023-03-05T09:14:58.521Z,58.98
2023-03-05T09:17:26.146Z,59.01
2023-03-05T09:19:53.750Z,59.16
2023-03-05T09:22:21.421Z,58.87
2023-03-05T09:24:49.010Z,59.30
2023-03-05T09:27:16.612Z,59.43
2023-03-05T09:29:45.564Z,58.75
2023-03-05T09:32:13.268Z,58.67
2023-03-05T09:34:41.069Z,58.70
2023-03-05T09:37:09.540Z,58.43
2023-03-05T09:39:38.047Z,58.67
2023-03-05T09:42:24.808Z,58.53
2023-03-05T09:45:04.631Z,58.45
2023-03-05T09:47:50.608Z,58.66
2023-03-05T09:50:32.724Z,58.80
2023-03-05T09:53:06.053Z,58.59
2023-03-05T09:55:40.266Z,58.55
2023-03-05T09:58:13.660Z,58.60
2023-03-05T10:00:45.955Z,58.62
2023-03-05T10:03:18.939Z,58.74
2023-03-05T10:05:57.032Z,58.80
2023-03-05T10:08:31.339Z,58.70
2023-03-05T10:11:03.003Z,58.70
2023-03-05T10:13:34.357Z,58.68
2023-03-05T10:16:11.792Z,58.76
2023-03-05T10:18:47.397Z,58.62
2023-03-05T10:21:22.019Z,58.63
2023-03-05T10:23:59.873Z,58.66
2023-03-05T10:26:41.458Z,58.53
2023-03-05T10:29:24.361Z,58.54
2023-03-05T10:32:02.834Z,58.35
2023-03-05T10:35:00.452Z,58.08
2023-03-05T10:38:13.254Z,58.80
2023-03-05T10:40:46.729Z,58.24
2023-03-05T10:43:24.070Z,58.32
2023-03-05T10:45:53.946Z,58.42
2023-03-05T10:48:29.305Z,58.18
2023-03-05T10:51:00.999Z,58.21
2023-03-05T10:53:33.501Z,58.05
2023-03-05T10:56:03.793Z,58.52
2023-03-05T10:58:31.421Z,58.21
2023-03-05T11:01:01.457Z,57.94
2023-03-05T11:03:48.278Z,58.09
2023-03-05T11:06:16.824Z,58.11
2023-03-05T11:08:44.414Z,57.94
2023-03-05T11:11:15.460Z,58.06
2023-03-05T11:13:53.047Z,57.74
2023-03-05T11:16:23.513Z,57.79
2023-03-05T11:19:16.505Z,57.98
2023-03-05T11:21:45.024Z,57.84
2023-03-05T11:24:14.866Z,58.00
2023-03-05T11:26:51.082Z,58.21
2023-03-05T11:29:22.026Z,57.97
2023-03-05T11:31:49.759Z,58.22
2023-03-05T11:34:31.345Z,58.01
2023-03-05T11:37:06.564Z,58.00
2023-03-05T11:39:38.403Z,58.09
2023-03-05T11:42:11.924Z,58.01
2023-03-05T11:44:47.903Z,58.50
2023-03-05T11:47:24.590Z,58.11
2023-03-05T11:49:56.942Z,58.38
2023-03-05T11:52:28.248Z,58.29
2023-03-05T11:55:03.290Z,58.48
2023-03-05T11:57:40.406Z,58.48
2023-03-05T12:00:14.280Z,58.21
2023-03-05T12:02:42.902Z,58.41
2023-03-05T12:05:16.641Z,58.37
2023-03-05T12:07:49.788Z,58.44
2023-03-05T12:10:20.553Z,58.40
2023-03-05T12:12:53.959Z,58.58
2023-03-05T12:15:34.905Z,58.23
2023-03-05T12:18:13.167Z,58.24
2023-03-05T12:20:50.031Z,58.21
2023-03-05T12:23:20.393Z,58.18
2023-03-05T12:25:50.403Z,58.54
2023-03-05T12:28:52.988Z,58.40
2023-03-05T12:31:35.187Z,58.29
2023-03-05T12:34:47.534Z,58.64
2023-03-05T12:37:35.918Z,58.41
2023-03-05T12:40:07.586Z,58.44
2023-03-05T12:42:52.994Z,58.42
2023-03-05T12:45:39.341Z,57.98
2023-03-05T12:48:43.610Z,58.55
2023-03-05T12:51:37.731Z,58.51
2023-03-05T12:54:29.169Z,58.67
2023-03-05T12:56:58.342Z,58.52
2023-03-05T12:59:32.901Z,58.46
2023-03-05T13:02:03.802Z,58.52
2023-03-05T13:04:37.613Z,58.72
2023-03-05T13:07:07.503Z,58.52
2023-03-05T13:09:36.479Z,58.52
2023-03-05T13:12:12.032Z,58.52
2023-03-05T13:14:42.643Z,58.73
2023-03-05T13:17:29.070Z,58.53
2023-03-05T13:19:59.784Z,58.35
2023-03-05T13:22:28.121Z,58.62
2023-03-05T13:25:16.237Z,58.40
2023-03-05T13:27:44.534Z,58.53
2023-03-05T13:30:23.931Z,58.36
2023-03-05T13:32:53.703Z,58.52
2023-03-05T13:35:22.974Z,58.54
2023-03-05T13:37:50.885Z,58.59
2023-03-05T13:40:24.511Z,59.26
2023-03-05T13:42:53.240Z,51.74
2023-03-05T13:45:27.891Z,47.95
2023-03-05T13:47:58.126Z,45.73
2023-03-05T13:50:28.954Z,44.54
2023-03-05T13:52:59.285Z,43.25
2023-03-05T13:55:27.078Z,42.45
2023-03-05T13:57:55.821Z,41.56
2023-03-05T14:00:31.062Z,41.74
2023-03-05T14:03:01.822Z,41.26
2023-03-05T14:05:32.306Z,41.44
2023-03-05T14:07:59.928Z,41.62
2023-03-05T14:10:34.319Z,41.22
2023-03-05T14:13:04.886Z,41.07
2023-03-05T14:15:34.212Z,41.71
2023-03-05T14:18:20.261Z,41.91
2023-03-05T14:21:02.913Z,41.58
2023-03-05T14:23:40.474Z,41.64
2023-03-05T14:26:31.350Z,41.20
2023-03-05T14:29:01.878Z,40.40
2023-03-05T14:31:32.178Z,40.61
2023-03-05T14:34:05.365Z,40.34
2023-03-05T14:36:35.111Z,40.21
2023-03-05T14:39:02.848Z,40.50
2023-03-05T14:41:37.200Z,40.63
2023-03-05T14:44:12.804Z,41.28
2023-03-05T14:46:40.789Z,41.17
2023-03-05T14:49:08.439Z,40.75
2023-03-05T14:51:41.282Z,40.59
2023-03-05T14:54:18.388Z,40.53
2023-03-05T14:56:46.239Z,40.54
2023-03-05T14:59:13.823Z,39.95
2023-03-05T15:01:41.422Z,40.17
2023-03-05T15:04:09.078Z,40.12
2023-03-05T15:06:41.045Z,40.00
2023-03-05T15:09:09.168Z,39.77
2023-03-05T15:11:36.797Z,40.28
2023-03-05T15:14:04.522Z,40.30
2023-03-05T15:16:33.070Z,40.30
2023-03-05T15:19:00.711Z,40.00
2023-03-05T15:21:28.307Z,40.03
2023-03-05T15:23:57.312Z,39.85
2023-03-05T15:26:25.119Z,39.86
2023-03-05T15:28:52.726Z,40.10
2023-03-05T15:31:20.400Z,40.20
2023-03-05T15:33:48.090Z,40.31
2023-03-05T15:36:15.652Z,39.40
2023-03-05T15:38:43.313Z,39.62
2023-03-05T15:41:12.268Z,39.33
2023-03-05T15:43:39.866Z,39.33
2023-03-05T15:46:08.076Z,39.39
2023-03-05T15:48:35.848Z,39.85
2023-03-05T15:51:07.465Z,39.42
2023-03-05T15:53:35.143Z,39.18
2023-03-05T15:56:02.705Z,39.73
2023-03-05T15:58:31.677Z,41.50
2023-03-05T16:00:59.303Z,42.38
2023-03-05T16:03:26.952Z,43.09
2023-03-05T16:05:54.617Z,43.73
2023-03-05T16:08:22.225Z,44.37
2023-03-05T16:10:49.877Z,44.79
2023-03-05T16:13:21.232Z,44.94
2023-03-05T16:15:53.051Z,44.94
2023-03-05T16:18:21.339Z,45.20
2023-03-05T16:20:49.218Z,45.34
2023-03-05T16:23:16.847Z,45.78
2023-03-05T16:25:44.554Z,46.00
2023-03-05T16:28:12.134Z,46.25
2023-03-05T16:30:39.957Z,46.53
2023-03-05T16:33:09.755Z,46.71
2023-03-05T16:35:37.447Z,46.74
2023-03-05T16:38:05.221Z,47.19
2023-03-05T16:41:02.943Z,47.02
2023-03-05T16:43:24.900Z,47.15
2023-03-05T16:45:52.454Z,47.29
2023-03-05T16:48:21.594Z,47.71
2023-03-05T16:50:49.425Z,47.66
2023-03-05T16:53:17.114Z,47.70
2023-03-05T16:55:44.680Z,48.28
2023-03-05T16:58:12.291Z,48.19
2023-03-05T17:00:40.114Z,48.59
2023-03-05T17:03:07.907Z,48.28
2023-03-05T17:05:38.236Z,48.77
2023-03-05T17:08:06.270Z,48.62
2023-03-05T17:10:34.463Z,48.84
2023-03-05T17:13:02.096Z,49.05
2023-03-05T17:15:29.731Z,49.12
2023-03-05T17:17:57.463Z,49.18
2023-03-05T17:20:25.051Z,49.32
2023-03-05T17:22:54.057Z,49.18
2023-03-05T17:25:22.046Z,49.51
2023-03-05T17:27:49.652Z,49.42
2023-03-05T17:30:17.941Z,49.33
2023-03-05T17:32:45.622Z,49.84
2023-03-05T17:35:18.847Z,49.53
2023-03-05T17:37:46.523Z,49.85
2023-03-05T17:40:16.522Z,49.68
2023-03-05T17:42:44.155Z,50.07
2023-03-05T17:45:12.923Z,50.13
2023-03-05T17:47:40.782Z,49.91
2023-03-05T17:50:09.663Z,50.36
2023-03-05T17:52:39.421Z,50.63
2023-03-05T17:55:09.968Z,50.36
2023-03-05T17:57:41.460Z,50.50
2023-03-05T18:00:13.918Z,50.58
2023-03-05T18:02:41.534Z,50.30
2023-03-05T18:05:10.123Z,50.66
2023-03-05T18:07:38.600Z,50.80
2023-03-05T18:10:07.883Z,51.01
2023-03-05T18:12:36.084Z,50.99
2023-03-05T18:15:06.518Z,50.97
2023-03-05T18:17:34.198Z,51.02
2023-03-05T18:20:03.993Z,51.03
2023-03-05T18:22:32.034Z,51.18
2023-03-05T18:24:59.716Z,51.05
2023-03-05T18:27:27.363Z,51.44
2023-03-05T18:29:55.313Z,51.57
2023-03-05T18:32:25.255Z,51.36
2023-03-05T18:34:53.151Z,51.60
2023-03-05T18:37:20.784Z,51.41
2023-03-05T18:39:48.396Z,51.39
2023-03-05T18:42:15.984Z,51.64
2023-03-05T18:44:43.685Z,51.46
2023-03-05T18:47:11.268Z,51.70
2023-03-05T18:49:40.230Z,51.75
2023-03-05T18:52:07.832Z,51.51
2023-03-05T18:54:35.406Z,51.68
2023-03-05T18:57:03.026Z,51.59
2023-03-05T18:59:31.827Z,51.67
2023-03-05T19:01:59.430Z,51.84
2023-03-05T19:04:27.539Z,51.65
2023-03-05T19:06:56.637Z,52.04
2023-03-05T19:09:41.102Z,51.81
2023-03-05T19:12:08.733Z,51.95
2023-03-05T19:14:36.314Z,52.19
2023-03-05T19:17:04.349Z,51.90
2023-03-05T19:19:31.978Z,52.10
2023-03-05T19:22:00.940Z,52.03
2023-03-05T19:24:30.245Z,52.14
2023-03-05T19:27:00.966Z,52.20
2023-03-05T19:29:32.771Z,52.36
2023-03-05T19:32:00.520Z,52.35
2023-03-05T19:34:28.291Z,52.40
2023-03-05T19:36:55.857Z,52.63
2023-03-05T19:39:25.029Z,52.39
2023-03-05T19:41:52.635Z,52.57
2023-03-05T19:44:20.408Z,52.73
2023-03-05T19:46:48.599Z,52.67
2023-03-05T19:49:16.935Z,52.38
2023-03-05T19:51:45.910Z,53.00
2023-03-05T19:54:14.933Z,52.78
2023-03-05T19:56:45.484Z,52.62
2023-03-05T19:59:16.297Z,52.75
2023-03-05T20:01:44.027Z,52.83
2023-03-05T20:04:15.170Z,52.61
2023-03-05T20:06:42.973Z,52.46
2023-03-05T20:09:10.989Z,53.02
2023-03-05T20:11:39.447Z,52.89
2023-03-05T20:14:09.174Z,52.67
2023-03-05T20:16:38.525Z,52.98
2023-03-05T20:19:08.095Z,52.80
2023-03-05T20:21:37.911Z,52.81
2023-03-05T20:24:09.774Z,52.85
2023-03-05T20:26:39.583Z,52.97
2023-03-05T20:29:09.191Z,53.16
2023-03-05T20:31:37.943Z,52.85
2023-03-05T20:34:06.057Z,53.19
2023-03-05T20:36:35.516Z,53.21
2023-03-05T20:39:03.900Z,53.27
2023-03-05T20:41:32.522Z,53.31
2023-03-05T20:44:00.158Z,53.38
2023-03-05T20:46:31.240Z,53.16
2023-03-05T20:49:01.005Z,53.45
2023-03-05T20:51:31.065Z,53.27
2023-03-05T20:54:03.071Z,53.36
2023-03-05T20:56:32.398Z,53.25
2023-03-05T20:59:03.800Z,53.35
2023-03-05T21:01:34.978Z,53.49
2023-03-05T21:04:03.935Z,53.35
2023-03-05T21:06:33.544Z,53.65
2023-03-05T21:09:01.506Z,53.58
2023-03-05T21:11:29.269Z,53.61
2023-03-05T21:13:56.947Z,53.50
2023-03-05T21:16:27.408Z,53.66
2023-03-05T21:18:57.296Z,53.59
2023-03-05T21:21:25.533Z,53.56
2023-03-05T21:23:53.427Z,53.70
2023-03-05T21:26:21.266Z,53.66
2023-03-05T21:28:48.928Z,53.77
2023-03-05T21:31:18.329Z,53.72
2023-03-05T21:33:46.517Z,53.72
2023-03-05T21:36:18.513Z,53.90
2023-03-05T21:38:46.842Z,53.80
2023-03-05T21:41:14.692Z,53.89
2023-03-05T21:43:43.277Z,53.94
2023-03-05T21:46:11.717Z,53.97
2023-03-05T21:48:39.394Z,53.87
2023-03-05T21:51:08.738Z,54.00
2023-03-05T21:53:37.722Z,53.91
2023-03-05T21:56:20.971Z,53.95
2023-03-05T21:58:48.995Z,54.01
2023-03-05T22:01:19.134Z,53.83
2023-03-05T22:03:47.242Z,53.76
2023-03-05T22:06:16.242Z,53.86
2023-03-05T22:08:45.215Z,54.22
2023-03-05T22:11:14.425Z,53.98
2023-03-05T22:13:42.779Z,54.01
2023-03-05T22:16:11.251Z,54.07
2023-03-05T22:18:38.986Z,54.18
2023-03-05T22:21:15.459Z,54.27
2023-03-05T22:23:43.077Z,54.28
2023-03-05T22:26:12.039Z,54.15
2023-03-05T22:28:39.834Z,54.34
2023-03-05T22:31:07.809Z,54.30
2023-03-05T22:33:35.644Z,54.38
2023-03-05T22:36:08.721Z,54.25
2023-03-05T22:38:36.334Z,54.34
2023-03-05T22:41:08.886Z,54.20
2023-03-05T22:43:38.457Z,54.39
2023-03-05T22:46:10.707Z,54.43
2023-03-05T22:48:38.368Z,54.35
2023-03-05T22:51:06.795Z,54.66
2023-03-05T22:53:34.641Z,54.57
2023-03-05T22:56:06.677Z,54.46
2023-03-05T22:58:34.298Z,54.50
2023-03-05T23:01:03.259Z,54.60
2023-03-05T23:03:30.992Z,54.71
2023-03-05T23:05:58.641Z,54.66
2023-03-05T23:08:26.386Z,54.55
2023-03-05T23:10:54.059Z,54.87
2023-03-05T23:13:21.885Z,54.79
2023-03-05T23:15:49.541Z,54.66
2023-03-05T23:18:18.490Z,54.83
2023-03-05T23:20:46.119Z,54.57
2023-03-05T23:23:13.725Z,54.53
2023-03-05T23:25:41.379Z,54.81
2023-03-05T23:28:09.001Z,54.60
2023-03-05T23:30:39.389Z,54.61
2023-03-05T23:33:09.200Z,54.81
2023-03-05T23:35:39.511Z,54.72
2023-03-05T23:38:10.240Z,54.87
2023-03-05T23:40:39.038Z,54.66
2023-03-05T23:43:06.697Z,54.66
2023-03-05T23:45:34.363Z,54.56
2023-03-05T23:48:02.342Z,54.80
2023-03-05T23:50:31.707Z,54.82
2023-03-05T23:53:02.209Z,54.43
2023-03-05T23:55:33.267Z,54.65
2023-03-05T23:58:01.712Z,54.60
